Time;durP1;ratioP1;P1;durP2;ratioP2;P2;SDS_P1;SDS_P2;PMS_P1;PMS_P2;Temp;Humidity;BMP_temperature;BMP_pressure;BME280_temperature;BME280_humidity;BME280_pressure;Samples;Min_cycle;Max_cycle;Signal;HPM_P1;HPM_P2
2023/05/14 00:01:38;;;;;;;11.38;8.30;;;;;;;;;;5048773;28;20029;-76
2023/05/14 00:04:04;;;;;;;14.35;8.50;;;;;;;;;;5048708;28;20344;-76
2023/05/14 00:06:30;;;;;;;10.48;9.10;;;;;;;;;;5049727;28;20025;-76
2023/05/14 00:08:57;;;;;;;10.18;9.10;;;;;;;;;;5049885;28;20111;-76
2023/05/14 00:11:23;;;;;;;10.73;8.80;;;;;;;;;;5050990;28;20032;-76
2023/05/14 00:13:49;;;;;;;9.23;8.20;;;;;;;;;;5050676;28;20050;-76
2023/05/14 00:16:15;;;;;;;11.85;9.13;;;;;;;;;;5050723;28;20068;-75
2023/05/14 00:18:41;;;;;;;11.20;8.85;;;;;;;;;;5050101;28;20402;-75
2023/05/14 00:21:07;;;;;;;13.38;9.68;;;;;;;;;;5050659;28;20037;-75
2023/05/14 00:23:33;;;;;;;11.45;8.82;;;;;;;;;;5050364;28;20379;-75
2023/05/14 00:25:59;;;;;;;12.57;9.85;;;;;;;;;;5054116;28;20025;-76
2023/05/14 00:28:25;;;;;;;10.05;8.60;;;;;;;;;;5053683;28;20029;-75
2023/05/14 00:30:51;;;;;;;9.90;8.10;;;;;;;;;;5054497;28;20048;-76
2023/05/14 00:33:17;;;;;;;10.40;8.35;;;;;;;;;;5054383;28;20021;-75
2023/05/14 00:35:43;;;;;;;11.77;8.98;;;;;;;;;;5054388;28;20682;-75
2023/05/14 00:38:15;;;;;;;13.52;8.05;;;;;;;;;;5053326;28;20029;-75
2023/05/14 00:40:44;;;;;;;11.38;8.45;;;;;;;;;;5054264;28;20394;-75
2023/05/14 00:43:10;;;;;;;9.75;8.02;;;;;;;;;;5053925;28;20487;-75
2023/05/14 00:45:36;;;;;;;9.10;8.00;;;;;;;;;;5055471;28;20029;-75
2023/05/14 00:48:03;;;;;;;9.38;8.40;;;;;;;;;;5053525;28;20021;-76
2023/05/14 00:50:29;;;;;;;10.90;9.40;;;;;;;;;;5054180;28;20083;-76
2023/05/14 00:52:55;;;;;;;11.27;9.18;;;;;;;;;;5054446;28;20029;-76
2023/05/14 00:55:21;;;;;;;12.48;10.52;;;;;;;;;;5053919;28;20040;-76
2023/05/14 00:57:47;;;;;;;11.95;10.05;;;;;;;;;;5053284;28;20025;-75
2023/05/14 01:00:13;;;;;;;12.90;9.50;;;;;;;;;;5053692;28;20111;-75
2023/05/14 01:02:39;;;;;;;10.68;9.05;;;;;;;;;;5053948;28;20025;-76
2023/05/14 01:05:06;;;;;;;11.48;9.05;;;;;;;;;;5053523;28;20163;-75
2023/05/14 01:07:51;;;;;;;11.77;10.00;;;;;;;;;;5051694;28;20395;-76
2023/05/14 01:10:25;;;;;;;12.57;10.13;;;;;;;;;;5053312;28;20028;-75
2023/05/14 01:12:57;;;;;;;10.65;9.32;;;;;;;;;;5053928;28;20033;-76
2023/05/14 01:15:25;;;;;;;12.52;9.60;;;;;;;;;;5054859;28;20032;-76
2023/05/14 01:17:58;;;;;;;12.20;9.77;;;;;;;;;;5052367;28;20132;-75
2023/05/14 01:20:26;;;;;;;12.32;9.88;;;;;;;;;;5053814;28;20029;-76
2023/05/14 01:22:52;;;;;;;11.80;10.20;;;;;;;;;;5053397;28;20483;-76
2023/05/14 01:25:18;;;;;;;14.50;9.75;;;;;;;;;;5053549;28;20021;-76
2023/05/14 01:27:53;;;;;;;13.13;9.73;;;;;;;;;;5052762;28;20079;-76
2023/05/14 01:30:31;;;;;;;11.77;10.27;;;;;;;;;;5050587;28;20033;-76
2023/05/14 01:32:59;;;;;;;13.80;9.45;;;;;;;;;;5053590;28;20433;-76
2023/05/14 01:35:26;;;;;;;12.70;9.68;;;;;;;;;;5052782;28;20029;-76
2023/05/14 01:37:54;;;;;;;15.18;10.32;;;;;;;;;;5052324;28;20489;-76
2023/05/14 01:40:21;;;;;;;12.52;9.38;;;;;;;;;;5053050;28;20108;-76
2023/05/14 01:42:47;;;;;;;10.98;9.57;;;;;;;;;;5052934;28;20040;-76
2023/05/14 01:45:13;;;;;;;10.73;9.00;;;;;;;;;;5053072;28;20047;-76
2023/05/14 01:47:39;;;;;;;12.98;10.15;;;;;;;;;;5052341;28;20100;-76
2023/05/14 01:50:05;;;;;;;13.35;9.95;;;;;;;;;;5052641;28;20096;-76
2023/05/14 01:52:31;;;;;;;14.40;11.25;;;;;;;;;;5051373;28;20087;-76
2023/05/14 01:54:58;;;;;;;11.65;9.93;;;;;;;;;;5051144;28;20029;-76
2023/05/14 01:57:24;;;;;;;11.07;9.77;;;;;;;;;;5050308;28;20028;-74
2023/05/14 01:59:50;;;;;;;13.98;10.23;;;;;;;;;;5051040;28;20017;-75
2023/05/14 02:02:16;;;;;;;11.82;10.55;;;;;;;;;;5049489;28;20078;-75
2023/05/14 02:04:42;;;;;;;13.65;11.45;;;;;;;;;;5050845;28;20017;-75
2023/05/14 02:07:08;;;;;;;14.23;10.93;;;;;;;;;;5051955;28;20025;-75
2023/05/14 02:09:35;;;;;;;11.80;9.82;;;;;;;;;;5052564;28;20040;-75
2023/05/14 02:12:01;;;;;;;11.70;10.38;;;;;;;;;;5051237;28;20029;-75
2023/05/14 02:14:27;;;;;;;13.10;10.80;;;;;;;;;;5052348;28;20095;-76
2023/05/14 02:16:53;;;;;;;11.48;9.90;;;;;;;;;;5051315;28;20534;-76
2023/05/14 02:19:18;;;;;;;14.10;10.77;;;;;;;;;;5051780;28;20021;-76
2023/05/14 02:21:44;;;;;;;12.57;11.20;;;;;;;;;;5052299;28;20055;-75
2023/05/14 02:24:10;;;;;;;12.30;11.00;;;;;;;;;;5052134;28;20029;-76
2023/05/14 02:26:36;;;;;;;12.52;10.80;;;;;;;;;;5052447;28;20025;-76
2023/05/14 02:29:03;;;;;;;13.52;10.90;;;;;;;;;;5051594;28;20604;-76
2023/05/14 02:31:29;;;;;;;12.38;10.95;;;;;;;;;;5052211;28;20017;-76
2023/05/14 02:33:55;;;;;;;13.90;11.55;;;;;;;;;;5050800;28;20025;-76
2023/05/14 02:36:21;;;;;;;13.82;11.00;;;;;;;;;;5052220;28;20029;-76
2023/05/14 02:38:47;;;;;;;14.70;11.65;;;;;;;;;;5051252;28;20021;-76
2023/05/14 02:41:13;;;;;;;14.07;11.60;;;;;;;;;;5051791;28;20067;-76
2023/05/14 02:43:40;;;;;;;13.02;11.48;;;;;;;;;;5051843;28;20029;-76
2023/05/14 02:46:06;;;;;;;14.90;12.00;;;;;;;;;;5051817;28;20021;-76
2023/05/14 02:48:32;;;;;;;14.25;12.50;;;;;;;;;;5049435;28;20021;-76
2023/05/14 02:50:58;;;;;;;15.05;12.65;;;;;;;;;;5051961;28;20021;-75
2023/05/14 02:53:24;;;;;;;14.35;12.68;;;;;;;;;;5051870;28;20040;-76
2023/05/14 02:55:50;;;;;;;14.20;11.98;;;;;;;;;;5051739;28;20021;-76
2023/05/14 02:58:16;;;;;;;14.55;13.05;;;;;;;;;;5051232;28;20028;-76
2023/05/14 03:00:42;;;;;;;16.20;12.98;;;;;;;;;;5051952;28;20021;-76
2023/05/14 03:03:08;;;;;;;14.73;12.98;;;;;;;;;;5051773;28;20032;-76
2023/05/14 03:05:34;;;;;;;14.77;12.68;;;;;;;;;;5051686;28;20464;-76
2023/05/14 03:08:00;;;;;;;16.65;12.55;;;;;;;;;;5050783;28;20029;-76
2023/05/14 03:10:26;;;;;;;15.73;13.90;;;;;;;;;;5051655;28;20025;-75
2023/05/14 03:12:52;;;;;;;17.23;14.68;;;;;;;;;;5051806;28;20067;-75
2023/05/14 03:15:18;;;;;;;21.75;18.60;;;;;;;;;;5051771;28;20025;-76
2023/05/14 03:17:44;;;;;;;35.42;27.52;;;;;;;;;;5051678;28;20029;-76
2023/05/14 03:20:10;;;;;;;16.73;14.43;;;;;;;;;;5052383;28;20025;-76
2023/05/14 03:22:36;;;;;;;24.60;17.30;;;;;;;;;;5052599;28;20025;-76
2023/05/14 03:25:02;;;;;;;19.52;14.90;;;;;;;;;;5050828;28;20066;-74
2023/05/14 03:27:28;;;;;;;14.50;12.45;;;;;;;;;;5052295;28;20056;-74
2023/05/14 03:29:54;;;;;;;15.10;12.02;;;;;;;;;;5051808;28;20025;-75
2023/05/14 03:32:20;;;;;;;35.90;29.70;;;;;;;;;;5051892;28;20056;-76
2023/05/14 03:34:46;;;;;;;20.00;15.82;;;;;;;;;;5051290;28;20033;-75
2023/05/14 03:37:12;;;;;;;18.15;13.88;;;;;;;;;;5050690;28;20678;-76
2023/05/14 03:39:38;;;;;;;25.95;19.55;;;;;;;;;;5051601;28;20027;-76
2023/05/14 03:42:04;;;;;;;35.78;27.63;;;;;;;;;;5049651;28;20119;-76
2023/05/14 03:44:30;;;;;;;20.48;16.55;;;;;;;;;;5051129;28;20021;-76
2023/05/14 03:46:56;;;;;;;25.13;17.98;;;;;;;;;;5049716;28;20032;-74
2023/05/14 03:49:23;;;;;;;20.08;13.77;;;;;;;;;;5049282;28;20029;-75
2023/05/14 03:51:49;;;;;;;16.45;13.43;;;;;;;;;;5051068;28;20112;-75
2023/05/14 03:54:15;;;;;;;16.27;12.50;;;;;;;;;;5051250;28;20032;-75
2023/05/14 03:56:41;;;;;;;15.23;12.88;;;;;;;;;;5051158;28;20074;-75
2023/05/14 03:59:07;;;;;;;12.93;11.30;;;;;;;;;;5052738;28;20056;-76
2023/05/14 04:01:33;;;;;;;11.68;10.32;;;;;;;;;;5055086;28;20029;-76
2023/05/14 04:03:59;;;;;;;15.32;10.57;;;;;;;;;;5055027;28;20033;-75
2023/05/14 04:06:25;;;;;;;13.90;9.23;;;;;;;;;;5055184;28;20029;-76
2023/05/14 04:08:51;;;;;;;12.52;8.73;;;;;;;;;;5054743;28;20025;-76
2023/05/14 04:11:17;;;;;;;9.13;7.30;;;;;;;;;;5055270;28;20075;-76
2023/05/14 04:13:43;;;;;;;9.27;7.75;;;;;;;;;;5055004;28;20025;-76
2023/05/14 04:16:09;;;;;;;9.80;7.93;;;;;;;;;;5055348;28;20033;-76
2023/05/14 04:18:35;;;;;;;12.00;10.02;;;;;;;;;;5054946;28;20025;-76
2023/05/14 04:21:02;;;;;;;10.35;8.55;;;;;;;;;;5055564;28;20025;-76
2023/05/14 04:23:28;;;;;;;8.32;7.15;;;;;;;;;;5055161;28;20029;-76
2023/05/14 04:25:54;;;;;;;8.25;7.45;;;;;;;;;;5054135;28;20129;-76
2023/05/14 04:28:20;;;;;;;8.32;6.60;;;;;;;;;;5054932;28;20071;-76
2023/05/14 04:30:46;;;;;;;10.80;7.25;;;;;;;;;;5056225;28;20495;-76
2023/05/14 04:33:12;;;;;;;8.48;6.93;;;;;;;;;;5058670;28;20061;-77
2023/05/14 04:35:38;;;;;;;13.75;7.55;;;;;;;;;;5059942;28;20093;-77
2023/05/14 04:38:04;;;;;;;8.18;6.95;;;;;;;;;;5058001;28;20711;-76
2023/05/14 04:40:31;;;;;;;12.55;6.70;;;;;;;;;;5060544;28;20029;-76
2023/05/14 04:42:57;;;;;;;7.97;7.03;;;;;;;;;;5058620;28;20043;-76
2023/05/14 04:45:23;;;;;;;9.18;7.25;;;;;;;;;;5055595;28;20017;-76
2023/05/14 04:47:50;;;;;;;7.88;6.68;;;;;;;;;;5055517;28;20021;-76
2023/05/14 04:50:16;;;;;;;8.73;7.53;;;;;;;;;;5054619;28;20402;-76
2023/05/14 04:52:42;;;;;;;8.20;6.78;;;;;;;;;;5054561;28;20391;-76
2023/05/14 04:55:08;;;;;;;11.20;7.18;;;;;;;;;;5054078;28;20055;-76
2023/05/14 04:57:34;;;;;;;6.90;6.13;;;;;;;;;;5053536;28;20024;-76
2023/05/14 05:00:00;;;;;;;7.25;6.05;;;;;;;;;;5053810;28;20383;-76
2023/05/14 05:02:26;;;;;;;7.35;5.60;;;;;;;;;;5054458;28;20029;-76
2023/05/14 05:04:52;;;;;;;7.90;5.95;;;;;;;;;;5054811;28;20024;-77
2023/05/14 05:07:18;;;;;;;6.82;5.25;;;;;;;;;;5056163;28;20033;-77
2023/05/14 05:09:44;;;;;;;5.80;5.28;;;;;;;;;;5055532;28;20021;-77
2023/05/14 05:12:10;;;;;;;6.88;5.00;;;24.00;42.30;;;;;;5053783;28;20025;-76
2023/05/14 05:14:36;;;;;;;7.95;6.68;;;;;;;;;;5053808;28;20025;-76
2023/05/14 05:17:02;;;;;;;8.15;6.57;;;;;;;;;;5052305;28;20029;-75
2023/05/14 05:19:28;;;;;;;10.02;6.18;;;;;;;;;;5051674;28;20032;-76
2023/05/14 05:21:54;;;;;;;7.18;5.85;;;;;;;;;;5053445;28;20407;-76
2023/05/14 05:24:20;;;;;;;8.10;5.85;;;;;;;;;;5053589;28;20024;-76
2023/05/14 05:26:46;;;;;;;7.03;5.50;;;;;;;;;;5053664;28;20029;-76
2023/05/14 05:29:12;;;;;;;6.25;5.65;;;;;;;;;;5053661;28;20017;-76
2023/05/14 05:31:38;;;;;;;6.63;5.80;;;;;;;;;;5053962;28;20070;-75
2023/05/14 05:34:04;;;;;;;7.05;5.68;;;;;;;;;;5053174;28;20039;-76
2023/05/14 05:36:30;;;;;;;5.75;5.25;;;;;;;;;;5072280;28;20545;-77
2023/05/14 05:38:56;;;;;;;5.80;5.20;;;;;;;;;;5058770;28;20029;-76
2023/05/14 05:41:22;;;;;;;11.90;5.68;;;23.90;42.50;;;;;;5053368;28;20047;-76
2023/05/14 05:43:48;;;;;;;6.47;5.18;;;24.20;41.70;;;;;;5053973;28;20104;-76
2023/05/14 05:46:14;;;;;;;8.68;5.80;;;;;;;;;;5053237;28;20029;-76
2023/05/14 05:48:40;;;;;;;7.60;5.60;;;;;;;;;;5052306;28;20580;-75
2023/05/14 05:51:06;;;;;;;8.18;5.63;;;;;;;;;;5053955;28;20418;-76
2023/05/14 05:53:32;;;;;;;9.02;6.28;;;;;;;;;;5051895;28;20533;-77
2023/05/14 05:55:58;;;;;;;5.88;5.28;;;;;;;;;;5053478;28;20475;-77
2023/05/14 05:58:24;;;;;;;9.75;5.80;;;;;;;;;;5052683;28;20029;-76
2023/05/14 06:00:50;;;;;;;9.07;5.55;;;;;;;;;;5056899;28;20029;-76
2023/05/14 06:03:16;;;;;;;6.57;5.47;;;;;;;;;;5057313;28;20060;-76
2023/05/14 06:05:42;;;;;;;11.27;5.40;;;;;;;;;;5060239;28;20025;-77
2023/05/14 06:08:08;;;;;;;7.80;5.43;;;;;;;;;;5062240;28;20029;-76
2023/05/14 06:10:36;;;;;;;9.07;5.50;;;;;;;;;;5054307;28;20448;-75
2023/05/14 06:13:01;;;;;;;7.18;5.43;;;24.50;40.10;;;;;;5050280;28;20055;-76
2023/05/14 06:15:27;;;;;;;6.38;5.32;;;24.60;39.90;;;;;;5055736;28;20029;-76
2023/05/14 06:17:53;;;;;;;7.32;4.65;;;26.00;37.80;;;;;;5048308;28;20491;-76
2023/05/14 06:20:18;;;;;;;7.63;5.18;;;27.00;35.90;;;;;;5053102;28;20090;-77
2023/05/14 06:22:44;;;;;;;7.25;5.55;;;27.60;34.70;;;;;;5057577;28;20029;-76
2023/05/14 06:25:10;;;;;;;5.63;4.75;;;28.50;33.90;;;;;;5059991;28;20028;-76
2023/05/14 06:27:35;;;;;;;9.10;5.25;;;29.20;32.20;;;;;;5074585;28;20025;-77
2023/05/14 06:30:01;;;;;;;5.25;4.30;;;29.40;31.80;;;;;;5076403;28;20444;-78
2023/05/14 06:32:27;;;;;;;4.45;4.05;;;29.20;32.40;;;;;;5058376;28;20212;-77
2023/05/14 06:34:52;;;;;;;8.25;5.18;;;29.60;30.90;;;;;;5059401;28;20033;-77
2023/05/14 06:37:18;;;;;;;5.35;4.78;;;;;;;;;;5057176;28;20029;-77
2023/05/14 06:39:48;;;;;;;5.85;4.80;;;28.40;31.70;;;;;;5059386;28;20025;-77
2023/05/14 06:42:15;;;;;;;6.03;4.80;;;27.60;33.30;;;;;;5059440;28;20040;-77
2023/05/14 06:44:41;;;;;;;5.80;5.00;;;28.20;32.30;;;;;;5086592;22;20045;-75
2023/05/14 06:47:07;;;;;;;7.30;5.10;;;;;;;;;;5053197;28;20040;-76
2023/05/14 06:49:34;;;;;;;6.90;4.45;;;27.50;34.00;;;;;;5052786;28;20021;-77
2023/05/14 06:51:59;;;;;;;6.30;4.78;;;28.50;33.20;;;;;;5053009;28;20036;-77
2023/05/14 06:54:25;;;;;;;6.88;4.65;;;28.90;31.30;;;;;;5052149;28;20044;-75
2023/05/14 06:56:51;;;;;;;4.85;4.38;;;27.90;33.40;;;;;;5051984;28;20491;-77
2023/05/14 06:59:16;;;;;;;7.60;4.63;;;29.10;32.60;;;;;;5052827;28;20021;-77
2023/05/14 07:01:42;;;;;;;7.15;4.63;;;30.40;30.70;;;;;;5053014;28;20040;-77
2023/05/14 07:04:07;;;;;;;6.85;4.72;;;31.20;28.70;;;;;;5052678;28;20091;-76
2023/05/14 07:06:33;;;;;;;5.25;4.72;;;29.00;31.20;;;;;;5053025;28;20100;-75
2023/05/14 07:09:00;;;;;;;6.22;4.97;;;;;;;;;;5051539;28;20027;-75
2023/05/14 07:11:26;;;;;;;5.10;4.60;;;;;;;;;;5052295;28;20044;-76
2023/05/14 07:13:52;;;;;;;5.53;4.70;;;27.70;33.20;;;;;;5051977;28;20028;-75
2023/05/14 07:16:18;;;;;;;7.95;4.70;;;28.70;31.60;;;;;;5051395;28;20029;-76
2023/05/14 07:18:44;;;;;;;6.53;4.43;;;29.30;31.00;;;;;;5050921;28;20113;-77
2023/05/14 07:21:10;;;;;;;6.88;4.47;;;29.70;30.10;;;;;;5051472;28;20025;-76
2023/05/14 07:23:37;;;;;;;4.22;3.83;;;28.60;31.60;;;;;;5051938;28;20040;-76
2023/05/14 07:26:05;;;;;;;6.25;4.07;;;28.10;32.80;;;;;;5051053;28;20033;-78
2023/05/14 07:28:31;;;;;;;5.85;4.72;;;28.00;33.00;;;;;;5053554;28;20024;-77
2023/05/14 07:30:56;;;;;;;9.00;4.45;;;27.30;33.30;;;;;;5052752;28;20021;-78
2023/05/14 07:33:26;;;;;;;6.45;4.43;;;;;;;;;;5051318;28;20028;-77
2023/05/14 07:35:53;;;;;;;5.13;3.97;;;;;;;;;;5051644;28;20021;-76
2023/05/14 07:38:19;;;;;;;4.30;3.90;;;27.40;34.30;;;;;;5050221;28;20487;-76
2023/05/14 07:40:45;;;;;;;4.65;3.75;;;27.90;34.10;;;;;;5049557;28;20124;-76
2023/05/14 07:43:11;;;;;;;5.18;3.70;;;29.40;32.70;;;;;;5049729;28;20119;-76
2023/05/14 07:45:38;;;;;;;6.50;4.05;;;30.20;30.40;;;;;;5049657;28;20495;-77
2023/05/14 07:48:04;;;;;;;4.38;3.35;;;30.10;30.00;;;;;;5050081;28;20021;-76
2023/05/14 07:50:30;;;;;;;5.40;4.75;;;30.50;30.10;;;;;;5050827;28;20021;-76
2023/05/14 07:52:56;;;;;;;6.70;3.90;;;29.00;31.00;;;;;;5050890;28;20027;-76
2023/05/14 07:55:22;;;;;;;4.72;4.03;;;;;;;;;;5049543;28;20031;-76
2023/05/14 07:57:48;;;;;;;5.07;4.03;;;;;;;;;;5049912;28;20397;-76
2023/05/14 08:00:14;;;;;;;8.48;4.47;;;;;;;;;;5049493;28;20044;-76
2023/05/14 08:02:41;;;;;;;4.80;4.13;;;;;;;;;;5050571;28;20029;-75
2023/05/14 08:05:07;;;;;;;7.90;4.80;;;;;;;;;;5050795;28;20021;-76
2023/05/14 08:07:34;;;;;;;5.75;3.90;;;;;;;;;;5049811;28;20135;-76
2023/05/14 08:09:59;;;;;;;7.00;3.60;;;27.90;34.50;;;;;;5049081;28;20470;-76
2023/05/14 08:12:25;;;;;;;5.72;4.25;;;28.40;33.10;;;;;;5050215;28;20029;-76
2023/05/14 08:14:51;;;;;;;7.55;4.07;;;;;;;;;;5050606;28;20127;-76
2023/05/14 08:17:17;;;;;;;6.10;4.90;;;;;;;;;;5049831;28;20025;-75
2023/05/14 08:19:43;;;;;;;5.50;4.18;;;;;;;;;;5050564;28;20041;-74
2023/05/14 08:22:09;;;;;;;5.88;3.85;;;;;;;;;;5050298;28;20025;-75
2023/05/14 08:24:36;;;;;;;5.38;4.18;;;;;;;;;;5050684;28;20028;-75
2023/05/14 08:27:02;;;;;;;4.70;4.20;;;;;;;;;;5050550;28;20100;-75
2023/05/14 08:29:28;;;;;;;4.60;4.20;;;;;;;;;;5050561;28;20034;-76
2023/05/14 08:31:54;;;;;;;5.13;4.20;;;;;;;;;;5050440;28;20021;-76
2023/05/14 08:34:20;;;;;;;5.30;4.78;;;;;;;;;;5050299;28;20029;-75
2023/05/14 08:36:46;;;;;;;4.60;3.90;;;;;;;;;;5050147;28;20025;-75
2023/05/14 08:39:12;;;;;;;5.00;4.50;;;;;;;;;;5049691;28;20511;-75
2023/05/14 08:41:39;;;;;;;5.88;4.25;;;;;;;;;;5050417;28;20104;-75
2023/05/14 08:44:12;;;;;;;5.32;4.25;;;;;;;;;;5049943;28;20021;-75
2023/05/14 08:46:38;;;;;;;4.78;4.38;;;;;;;;;;5053139;28;20120;-76
2023/05/14 08:49:14;;;;;;;7.18;4.30;;;;;;;;;;5053015;28;20056;-76
2023/05/14 08:51:41;;;;;;;4.35;3.95;;;;;;;;;;5054034;28;20024;-75
2023/05/14 08:54:07;;;;;;;6.85;4.78;;;;;;;;;;5053895;28;20017;-74
2023/05/14 08:56:33;;;;;;;9.85;5.03;;;;;;;;;;5053880;28;20554;-74
2023/05/14 08:58:59;;;;;;;7.30;5.38;;;;;;;;;;5053305;28;20035;-76
2023/05/14 09:01:25;;;;;;;5.57;4.57;;;;;;;;;;5053820;28;20082;-74
2023/05/14 09:03:52;;;;;;;5.68;4.00;;;;;;;;;;5053588;28;20036;-74
2023/05/14 09:06:18;;;;;;;9.65;4.68;;;;;;;;;;5053608;28;20033;-75
2023/05/14 09:08:45;;;;;;;4.95;4.13;;;;;;;;;;5053197;28;20426;-75
2023/05/14 09:11:11;;;;;;;5.57;3.72;;;;;;;;;;5052415;28;20037;-75
2023/05/14 09:13:38;;;;;;;6.13;3.55;;;;;;;;;;5053664;28;20036;-75
2023/05/14 09:16:04;;;;;;;3.83;3.45;;;;;;;;;;5053365;28;20025;-75
2023/05/14 09:18:30;;;;;;;6.65;4.80;;;;;;;;;;5051363;28;20029;-75
2023/05/14 09:20:57;;;;;;;4.65;3.95;;;;;;;;;;5052763;28;20055;-75
2023/05/14 09:23:25;;;;;;;4.10;3.67;;;;;;;;;;5053540;28;20029;-75
2023/05/14 09:25:51;;;;;;;5.40;3.47;;;;;;;;;;5053234;28;20021;-75
2023/05/14 09:28:20;;;;;;;6.50;3.60;;;;;;;;;;5052715;28;20021;-75
2023/05/14 09:30:52;;;;;;;3.80;3.20;;;;;;;;;;5053387;28;20024;-74
2023/05/14 09:33:28;;;;;;;3.67;3.00;;;;;;;;;;5053124;28;20597;-74
2023/05/14 09:36:00;;;;;;;5.20;3.85;;;;;;;;;;5052892;28;20070;-74
2023/05/14 09:38:33;;;;;;;3.70;3.40;;;;;;;;;;5052729;28;20040;-75
2023/05/14 09:40:59;;;;;;;3.72;3.38;;;;;;;;;;5054333;28;20021;-74
2023/05/14 09:43:26;;;;;;;4.82;3.90;;;;;;;;;;5053371;28;20021;-74
2023/05/14 09:45:52;;;;;;;3.67;3.38;;;;;;;;;;5052950;28;20041;-76
2023/05/14 09:48:18;;;;;;;4.78;3.30;;;;;;;;;;5052110;28;20029;-74
2023/05/14 09:50:45;;;;;;;3.25;2.95;;;;;;;;;;5053006;28;20057;-75
2023/05/14 09:53:11;;;;;;;5.47;3.03;;;;;;;;;;5051567;28;20086;-74
2023/05/14 09:55:38;;;;;;;6.32;4.32;;;;;;;;;;5052632;28;20029;-75
2023/05/14 09:58:04;;;;;;;3.60;3.28;;;;;;;;;;5051551;28;20351;-75
2023/05/14 10:00:34;;;;;;;4.60;3.78;;;;;;;;;;5052638;28;20021;-76
2023/05/14 10:03:04;;;;;;;4.43;3.55;;;;;;;;;;5052347;28;20487;-74
2023/05/14 10:05:31;;;;;;;4.80;4.20;;;;;;;;;;5052694;28;20107;-75
2023/05/14 10:07:58;;;;;;;4.88;3.75;;;;;;;;;;5052227;28;20029;-75
2023/05/14 10:10:27;;;;;;;3.70;3.33;;;;;;;;;;5052479;28;20100;-74
2023/05/14 10:13:05;;;;;;;4.90;3.58;;;;;;;;;;5052668;28;20035;-75
2023/05/14 10:15:40;;;;;;;4.78;3.78;;;;;;;;;;5052744;28;20025;-74
2023/05/14 10:18:10;;;;;;;8.23;3.85;;;;;;;;;;5051815;28;20100;-75
2023/05/14 10:20:37;;;;;;;3.88;3.08;;;;;;;;;;5052426;28;20032;-75
2023/05/14 10:23:12;;;;;;;5.80;3.40;;;;;;;;;;5052187;28;20025;-75
2023/05/14 10:25:38;;;;;;;4.78;3.53;;;;;;;;;;5052498;28;20052;-75
2023/05/14 10:28:05;;;;;;;5.03;3.78;;;;;;;;;;5051850;28;20028;-75
2023/05/14 10:30:31;;;;;;;5.22;3.25;;;;;;;;;;5053988;28;20422;-75
2023/05/14 10:33:07;;;;;;;4.35;3.70;;;;;;;;;;5054562;28;20075;-74
2023/05/14 10:35:50;;;;;;;4.55;3.25;;;;;;;;;;5052194;28;20136;-75
2023/05/14 10:38:16;;;;;;;3.83;3.42;;;;;;;;;;5051246;28;20032;-75
2023/05/14 10:40:42;;;;;;;4.88;3.45;;;;;;;;;;5052079;28;20609;-75
2023/05/14 10:43:10;;;;;;;5.07;3.90;;;;;;;;;;5050572;28;20426;-75
2023/05/14 10:45:36;;;;;;;4.63;4.22;;;;;;;;;;5051591;28;20484;-76
2023/05/14 10:48:02;;;;;;;5.45;4.25;;;;;;;;;;5050863;28;20491;-75
2023/05/14 10:50:29;;;;;;;6.75;4.70;;;;;;;;;;5052054;28;20025;-74
2023/05/14 10:52:56;;;;;;;4.65;4.03;;;;;;;;;;5051723;28;20390;-75
2023/05/14 10:55:22;;;;;;;6.53;4.35;;;;;;;;;;5051330;28;20059;-75
2023/05/14 10:57:48;;;;;;;6.25;4.47;;;;;;;;;;5050928;28;20086;-75
2023/05/14 11:00:15;;;;;;;6.13;4.30;;;;;;;;;;5051441;28;20059;-75
2023/05/14 11:02:42;;;;;;;4.20;3.80;;;;;;;;;;5051298;28;20087;-75
2023/05/14 11:05:10;;;;;;;5.50;3.92;;;;;;;;;;5051247;28;20100;-74
2023/05/14 11:07:46;;;;;;;6.18;4.20;;;;;;;;;;5048908;28;20529;-74
2023/05/14 11:10:14;;;;;;;4.80;4.07;;;;;;;;;;5051129;28;20056;-75
2023/05/14 11:12:42;;;;;;;4.72;4.10;;;;;;;;;;5051069;28;20028;-74
2023/05/14 11:15:09;;;;;;;5.55;4.07;;;;;;;;;;5051044;28;20058;-74
2023/05/14 11:17:36;;;;;;;4.38;3.75;;;;;;;;;;5050555;28;20107;-74
2023/05/14 11:20:04;;;;;;;5.03;4.05;;;;;;;;;;5051242;28;20035;-74
2023/05/14 11:22:30;;;;;;;4.72;3.47;;;;;;;;;;5051347;28;20029;-74
2023/05/14 11:24:56;;;;;;;5.25;4.15;;;;;;;;;;5051217;28;20032;-74
2023/05/14 11:27:23;;;;;;;4.00;3.60;;;;;;;;;;5050796;28;20025;-75
2023/05/14 11:29:49;;;;;;;4.40;3.85;;;;;;;;;;5050862;28;20075;-74
2023/05/14 11:32:15;;;;;;;3.50;3.20;;;;;;;;;;5049688;28;20021;-74
2023/05/14 11:34:43;;;;;;;5.88;4.13;;;;;;;;;;5050951;28;20517;-75
2023/05/14 11:37:11;;;;;;;3.70;3.30;;;;;;;;;;5050156;28;20033;-73
2023/05/14 11:39:37;;;;;;;5.82;4.50;;;;;;;;;;5051104;28;20083;-74
2023/05/14 11:42:15;;;;;;;4.57;3.80;;;;;;;;;;5050700;28;20479;-74
2023/05/14 11:44:43;;;;;;;6.78;4.18;;;;;;;;;;5050703;28;20025;-74
2023/05/14 11:47:09;;;;;;;8.07;3.90;;;;;;;;;;5050129;28;20487;-73
2023/05/14 11:49:36;;;;;;;3.78;3.47;;;;;;;;;;5051020;28;20036;-75
2023/05/14 11:52:03;;;;;;;5.25;4.25;;;;;;;;;;5050757;28;20483;-75
2023/05/14 11:54:30;;;;;;;6.00;3.95;;;;;;;;;;5050900;28;20036;-75
2023/05/14 11:56:56;;;;;;;3.97;3.28;;;;;;;;;;5050513;28;20060;-75
2023/05/14 11:59:30;;;;;;;5.88;3.42;;;;;;;;;;5050246;28;20017;-74
2023/05/14 12:01:56;;;;;;;3.58;3.15;;;;;;;;;;5049308;28;20021;-74
2023/05/14 12:04:22;;;;;;;3.92;3.28;;;;;;;;;;5050425;28;20143;-74
2023/05/14 12:06:49;;;;;;;5.63;3.28;;;;;;;;;;5050764;28;20482;-74
2023/05/14 12:09:16;;;;;;;4.47;3.25;;;;;;;;;;5049908;28;20418;-75
2023/05/14 12:11:43;;;;;;;6.35;5.30;;;;;;;;;;5050540;28;20017;-74
2023/05/14 12:14:14;;;;;;;4.22;3.05;;;;;;;;;;5045736;28;20492;-74
2023/05/14 12:16:41;;;;;;;3.65;2.60;;;;;;;;;;5050386;28;20583;-74
2023/05/14 12:19:09;;;;;;;2.53;2.33;;;;;;;;;;5050373;28;20040;-76
2023/05/14 12:21:35;;;;;;;3.63;2.70;;;;;;;;;;5054538;28;20032;-74
2023/05/14 12:24:01;;;;;;;3.58;2.60;;;;;;;;;;5053395;28;20504;-75
2023/05/14 12:26:27;;;;;;;3.20;2.55;;;;;;;;;;5054462;28;20045;-74
2023/05/14 12:28:59;;;;;;;2.60;2.40;;;;;;;;;;5053373;28;20017;-74
2023/05/14 12:31:35;;;;;;;3.35;3.05;;;;;;;;;;5053563;28;20452;-74
2023/05/14 12:34:02;;;;;;;4.68;2.80;;;;;;;;;;5053629;28;20093;-75
2023/05/14 12:36:29;;;;;;;3.55;3.10;;;;;;;;;;5054256;28;20434;-74
2023/05/14 12:39:02;;;;;;;4.47;3.22;;;;;;;;;;5053212;28;20108;-75
2023/05/14 12:41:31;;;;;;;4.95;2.63;;;;;;;;;;5053860;28;20503;-75
2023/05/14 12:43:58;;;;;;;11.63;3.92;;;;;;;;;;5055360;28;20032;-76
2023/05/14 12:46:25;;;;;;;3.78;2.47;;;;;;;;;;5067868;22;20047;-77
2023/05/14 12:48:51;;;;;;;6.53;2.85;;;;;;;;;;5054331;28;20025;-75
2023/05/14 12:51:17;;;;;;;4.75;2.75;;;;;;;;;;5054773;28;20017;-76
2023/05/14 12:53:43;;;;;;;3.13;2.60;;;;;;;;;;5054306;28;20032;-76
2023/05/14 12:56:10;;;;;;;3.20;2.53;;;;;;;;;;5054360;28;20568;-76
2023/05/14 12:58:36;;;;;;;4.07;2.10;;;;;;;;;;5053470;28;20110;-76
2023/05/14 13:01:02;;;;;;;2.83;2.30;;;;;;;;;;5054181;28;20041;-76
2023/05/14 13:03:28;;;;;;;2.55;2.35;;;;;;;;;;5053773;28;20033;-76
2023/05/14 13:05:54;;;;;;;3.95;2.83;;;;;;;;;;5053751;28;20507;-76
2023/05/14 13:08:26;;;;;;;4.75;2.70;;;;;;;;;;5053262;28;20104;-76
2023/05/14 13:10:53;;;;;;;2.25;2.10;;;;;;;;;;5054609;28;20036;-77
2023/05/14 13:13:19;;;;;;;2.33;2.13;;;;;;;;;;5054361;28;20049;-76
2023/05/14 13:15:45;;;;;;;3.08;2.20;;;;;;;;;;5055689;28;20029;-76
2023/05/14 13:18:12;;;;;;;4.25;2.42;;;;;;;;;;5054093;28;20031;-76
2023/05/14 13:20:38;;;;;;;2.50;2.20;;;;;;;;;;5053574;28;20064;-74
2023/05/14 13:23:04;;;;;;;3.20;2.58;;;;;;;;;;5053514;28;20025;-75
2023/05/14 13:25:30;;;;;;;3.03;2.25;;;;;;;;;;5053412;28;20424;-75
2023/05/14 13:27:56;;;;;;;5.03;2.47;;;;;;;;;;5051497;28;20445;-75
2023/05/14 13:30:22;;;;;;;2.33;2.13;;;;;;;;;;5052425;28;20025;-75
2023/05/14 13:32:48;;;;;;;4.53;2.42;;;;;;;;;;5051768;28;20075;-74
2023/05/14 13:35:14;;;;;;;2.45;2.25;;;;;;;;;;5052954;28;20039;-76
2023/05/14 13:37:43;;;;;;;4.88;2.72;;;;;;;;;;5051233;28;20029;-76
2023/05/14 13:40:09;;;;;;;4.63;2.67;;;;;;;;;;5056505;28;20028;-74
2023/05/14 13:42:35;;;;;;;3.13;2.80;;;;;;;;;;5053239;28;20051;-75
2023/05/14 13:45:02;;;;;;;2.92;2.60;;;;;;;;;;5051885;28;20083;-76
2023/05/14 13:47:28;;;;;;;4.32;2.85;;;;;;;;;;5052108;28;20051;-75
2023/05/14 13:49:55;;;;;;;3.85;2.97;;;;;;;;;;5053944;28;20029;-77
2023/05/14 13:52:21;;;;;;;4.18;2.63;;;;;;;;;;5052975;28;20017;-76
2023/05/14 13:54:47;;;;;;;3.35;2.67;;;;;;;;;;5053746;28;20021;-74
2023/05/14 13:57:14;;;;;;;5.68;3.08;;;;;;;;;;5052466;28;20028;-75
2023/05/14 13:59:40;;;;;;;3.22;2.90;;;;;;;;;;5053119;28;20479;-75
2023/05/14 14:02:06;;;;;;;8.00;3.05;;;;;;;;;;5053516;28;20032;-75
2023/05/14 14:04:32;;;;;;;3.28;2.97;;;;;;;;;;5052897;28;20025;-75
2023/05/14 14:06:58;;;;;;;2.95;2.65;;;;;;;;;;5051013;28;20048;-76
2023/05/14 14:09:25;;;;;;;2.45;2.25;;;;;;;;;;5050910;28;20495;-76
2023/05/14 14:11:51;;;;;;;3.28;2.72;;;;;;;;;;5052656;28;20032;-76
2023/05/14 14:14:17;;;;;;;4.00;2.70;;;;;;;;;;5052572;28;20031;-75
2023/05/14 14:16:43;;;;;;;4.25;2.72;;;;;;;;;;5052334;28;20025;-76
2023/05/14 14:19:09;;;;;;;3.35;2.80;;;;;;;;;;5051751;28;20395;-76